Time;durP1;ratioP1;P1;durP2;ratioP2;P2;SDS_P1;SDS_P2;PMS_P1;PMS_P2;Temp;Humidity;BMP_temperature;BMP_pressure;BME280_temperature;BME280_humidity;BME280_pressure;Samples;Min_cycle;Max_cycle;Signal;HPM_P1;HPM_P2
2023/07/07 00:00:46;;;;;;;28.77;17.85;;;11.60;1.00;;;;;;5113728;28;20127;-21
2023/07/07 00:03:11;;;;;;;27.45;17.42;;;11.50;10.10;;;;;;5113856;28;20052;-20
2023/07/07 00:05:37;;;;;;;25.65;16.45;;;11.50;19.20;;;;;;5114829;28;20512;-20
2023/07/07 00:08:04;;;;;;;22.63;15.63;;;11.50;38.50;;;;;;5096400;28;20101;-21
2023/07/07 00:10:29;;;;;;;23.52;14.55;;;11.40;86.70;;;;;;5114220;28;20043;-21
2023/07/07 00:12:55;;;;;;;18.48;12.75;;;11.40;92.70;;;;;;5113716;28;20092;-21
2023/07/07 00:15:21;;;;;;;21.67;13.10;;;11.30;83.10;;;;;;5114662;28;20053;-21
2023/07/07 00:17:47;;;;;;;19.05;12.05;;;11.30;89.20;;;;;;5114828;28;20051;-21
2023/07/07 00:20:14;;;;;;;19.67;11.32;;;11.20;96.40;;;;;;5114118;28;20491;-21
2023/07/07 00:22:40;;;;;;;16.55;10.18;;;11.20;99.90;;;;;;5113574;28;20493;-21
2023/07/07 00:25:07;;;;;;;16.45;8.43;;;11.20;99.90;;;;;;5113731;28;20054;-21
2023/07/07 00:27:34;;;;;;;12.52;8.95;;;11.20;99.90;;;;;;5113480;28;20089;-21
2023/07/07 00:30:00;;;;;;;20.33;9.65;;;11.10;99.90;;;;;;5114420;28;20086;-21
2023/07/07 00:32:26;;;;;;;14.98;9.70;;;11.10;99.90;;;;;;5112105;28;20128;-21
2023/07/07 00:34:51;;;;;;;14.25;8.60;;;11.00;99.90;;;;;;5114319;28;20039;-21
2023/07/07 00:37:17;;;;;;;15.48;9.23;;;11.00;99.90;;;;;;5096345;28;20131;-21
2023/07/07 00:39:43;;;;;;;15.45;8.90;;;10.90;99.90;;;;;;5113415;28;20109;-21
2023/07/07 00:42:10;;;;;;;11.13;7.63;;;10.90;99.90;;;;;;5113883;28;20146;-21
2023/07/07 00:45:13;;;;;;;12.52;8.77;;;10.90;99.90;;;;;;5114175;28;20055;-21
2023/07/07 00:47:42;;;;;;;11.43;7.80;;;;;;;;;;5114190;28;20146;-21
2023/07/07 00:50:10;;;;;;;14.25;8.10;;;10.80;99.90;;;;;;5113395;28;20040;-21
2023/07/07 00:52:38;;;;;;;15.25;8.45;;;10.60;99.90;;;;;;5114399;28;20054;-21
2023/07/07 00:55:04;;;;;;;13.05;8.48;;;10.70;99.90;;;;;;5114080;28;20054;-21
2023/07/07 00:57:30;;;;;;;14.60;8.60;;;10.70;99.90;;;;;;5114011;28;20040;-21
2023/07/07 00:59:56;;;;;;;11.60;7.97;;;10.60;99.90;;;;;;5111271;28;20081;-21
2023/07/07 01:02:24;;;;;;;12.73;8.00;;;10.60;99.90;;;;;;5114527;28;20090;-21
2023/07/07 01:04:57;;;;;;;13.10;7.80;;;10.50;99.90;;;;;;5113832;28;20089;-21
2023/07/07 01:07:29;;;;;;;11.65;7.95;;;10.50;99.90;;;;;;5112710;28;20047;-21
2023/07/07 01:09:55;;;;;;;13.63;8.90;;;10.40;99.90;;;;;;5113386;28;20047;-21
2023/07/07 01:12:21;;;;;;;12.93;7.85;;;10.50;99.90;;;;;;5112387;28;20128;-20
2023/07/07 01:14:49;;;;;;;14.80;8.88;;;10.40;99.90;;;;;;5113918;28;20047;-20
2023/07/07 01:17:21;;;;;;;11.63;8.18;;;10.30;99.90;;;;;;5112659;28;20473;-21
2023/07/07 01:19:58;;;;;;;13.00;8.73;;;10.40;99.90;;;;;;5113853;28;20040;-21
2023/07/07 01:22:33;;;;;;;12.57;8.38;;;10.30;99.90;;;;;;5112432;28;20520;-21
2023/07/07 01:25:29;;;;;;;10.45;8.57;;;10.40;99.90;;;;;;5114185;28;20060;-21
2023/07/07 01:28:24;;;;;;;14.68;8.57;;;10.40;99.90;;;;;;5114344;28;20047;-21
2023/07/07 01:31:16;;;;;;;11.90;7.70;;;10.50;99.90;;;;;;5113215;28;20089;-21
2023/07/07 01:33:44;;;;;;;9.93;7.50;;;10.50;99.90;;;;;;5101433;28;20040;-21
2023/07/07 01:36:09;;;;;;;12.30;8.25;;;10.40;99.90;;;;;;5113282;28;20131;-21
2023/07/07 01:38:44;;;;;;;10.95;8.27;;;10.30;99.90;;;;;;5112405;28;20127;-21
2023/07/07 01:41:17;;;;;;;11.82;7.72;;;10.50;99.90;;;;;;5114387;28;20047;-21
2023/07/07 01:44:06;;;;;;;13.32;8.52;;;10.50;99.90;;;;;;5117813;28;20105;-20
2023/07/07 01:46:39;;;;;;;10.93;8.32;;;10.40;99.90;;;;;;5117410;28;20083;-21
2023/07/07 01:49:25;;;;;;;11.73;7.47;;;10.40;99.90;;;;;;5116501;28;20056;-21
2023/07/07 01:52:10;;;;;;;13.02;7.90;;;10.30;99.90;;;;;;5116146;28;20139;-20
2023/07/07 01:54:41;;;;;;;9.57;7.15;;;10.30;99.90;;;;;;5096728;28;20531;-21
2023/07/07 01:57:08;;;;;;;12.57;7.82;;;10.30;99.90;;;;;;5100305;28;20039;-21
2023/07/07 01:59:34;;;;;;;14.00;9.10;;;10.30;99.90;;;;;;5117753;28;20415;-21
2023/07/07 02:02:01;;;;;;;14.25;8.50;;;10.30;99.90;;;;;;5117159;28;20047;-21
2023/07/07 02:04:27;;;;;;;11.13;8.55;;;10.20;99.90;;;;;;5116127;28;20047;-21
2023/07/07 02:06:52;;;;;;;13.80;9.15;;;10.30;99.90;;;;;;5115926;28;20442;-21
2023/07/07 02:09:20;;;;;;;10.27;8.48;;;10.20;99.90;;;;;;5117369;28;20047;-21
2023/07/07 02:11:46;;;;;;;13.55;8.60;;;10.20;99.90;;;;;;5117032;28;20054;-21
2023/07/07 02:14:11;;;;;;;14.52;8.57;;;10.20;99.90;;;;;;5116140;28;20052;-21
2023/07/07 02:16:37;;;;;;;12.30;8.82;;;10.20;99.90;;;;;;5117189;28;20362;-21
2023/07/07 02:19:03;;;;;;;12.57;8.65;;;10.20;99.90;;;;;;5116798;28;20481;-21
2023/07/07 02:21:28;;;;;;;13.30;8.65;;;10.20;99.90;;;;;;5116809;28;20043;-21
2023/07/07 02:23:54;;;;;;;11.55;8.60;;;10.20;99.90;;;;;;5114722;28;20089;-21
2023/07/07 02:26:20;;;;;;;11.75;8.27;;;10.20;99.90;;;;;;5116641;28;20051;-21
2023/07/07 02:28:47;;;;;;;15.70;9.35;;;10.20;99.90;;;;;;5116701;28;20036;-21
2023/07/07 02:31:13;;;;;;;11.73;8.45;;;10.30;99.90;;;;;;5117736;28;20040;-21
2023/07/07 02:33:39;;;;;;;14.27;8.30;;;10.20;99.90;;;;;;5115557;28;20040;-21
2023/07/07 02:36:08;;;;;;;12.90;8.65;;;10.20;99.90;;;;;;5097317;28;20043;-21
2023/07/07 02:38:35;;;;;;;14.27;8.90;;;10.20;99.90;;;;;;5116392;28;20127;-21
2023/07/07 02:41:01;;;;;;;13.07;9.40;;;10.20;99.90;;;;;;5116182;28;20581;-21
2023/07/07 02:43:28;;;;;;;16.58;8.95;;;10.20;99.90;;;;;;5098398;28;20104;-21
2023/07/07 02:45:54;;;;;;;12.77;9.30;;;10.20;99.90;;;;;;5115566;28;20097;-21
2023/07/07 02:48:21;;;;;;;13.18;9.00;;;10.30;99.90;;;;;;5116319;28;20040;-20
2023/07/07 02:51:00;;;;;;;16.30;9.93;;;10.30;99.90;;;;;;5117126;28;20083;-21
2023/07/07 02:53:29;;;;;;;12.20;9.07;;;10.30;99.90;;;;;;5116262;28;20043;-21
2023/07/07 02:55:55;;;;;;;16.10;10.10;;;10.40;99.90;;;;;;5115398;28;20100;-21
2023/07/07 02:58:22;;;;;;;12.82;9.38;;;10.50;99.90;;;;;;5115032;28;20056;-21
2023/07/07 03:00:48;;;;;;;14.02;9.50;;;10.50;99.90;;;;;;5116008;28;20539;-21
2023/07/07 03:03:15;;;;;;;14.00;10.30;;;10.50;99.90;;;;;;5098055;28;20089;-21
2023/07/07 03:05:42;;;;;;;17.52;10.18;;;10.50;99.90;;;;;;5115012;28;20048;-21
2023/07/07 03:08:08;;;;;;;13.63;9.73;;;10.60;99.90;;;;;;5097239;28;20565;-21
2023/07/07 03:10:35;;;;;;;13.98;9.60;;;10.60;99.90;;;;;;5115635;28;20539;-21
2023/07/07 03:13:02;;;;;;;21.38;10.40;;;10.50;99.90;;;;;;5116081;28;20047;-21
2023/07/07 03:15:38;;;;;;;13.63;10.18;;;10.60;99.90;;;;;;5115825;28;20051;-21
2023/07/07 03:18:09;;;;;;;21.02;10.90;;;10.60;99.90;;;;;;5114611;28;20047;-21
2023/07/07 03:20:36;;;;;;;17.08;10.85;;;10.60;99.90;;;;;;5114451;28;20389;-21
2023/07/07 03:23:03;;;;;;;17.17;12.25;;;10.60;99.90;;;;;;5116202;28;20124;-21
2023/07/07 03:25:29;;;;;;;18.27;12.05;;;10.70;99.90;;;;;;5115852;28;20055;-21
2023/07/07 03:27:56;;;;;;;18.42;11.73;;;10.70;99.90;;;;;;5113423;28;20047;-21
2023/07/07 03:30:22;;;;;;;15.05;11.80;;;10.70;99.90;;;;;;5115079;28;20055;-21
2023/07/07 03:32:47;;;;;;;24.98;13.88;;;10.80;99.90;;;;;;5115913;28;20093;-21
2023/07/07 03:35:13;;;;;;;17.02;12.60;;;10.80;99.90;;;;;;5114648;28;20476;-21
2023/07/07 03:37:39;;;;;;;15.80;13.13;;;10.80;99.90;;;;;;5114451;28;20043;-21
2023/07/07 03:40:06;;;;;;;24.92;14.07;;;10.90;99.90;;;;;;5114863;28;20046;-21
2023/07/07 03:42:33;;;;;;;25.27;14.90;;;10.90;99.90;;;;;;5115110;28;20104;-21
2023/07/07 03:44:59;;;;;;;25.20;14.80;;;10.90;99.90;;;;;;5097169;28;20039;-21
2023/07/07 03:47:25;;;;;;;20.70;14.45;;;11.00;99.90;;;;;;5115433;28;20044;-21
2023/07/07 03:49:51;;;;;;;21.98;14.68;;;11.00;99.90;;;;;;5114112;28;20457;-21
2023/07/07 03:52:17;;;;;;;20.92;15.77;;;11.00;99.90;;;;;;5115049;28;20039;-21
2023/07/07 03:54:43;;;;;;;18.20;14.73;;;11.00;99.90;;;;;;5113749;28;20126;-21
2023/07/07 03:57:10;;;;;;;25.15;15.70;;;11.00;99.90;;;;;;5115023;28;20130;-21
2023/07/07 03:59:37;;;;;;;20.75;15.25;;;11.10;99.90;;;;;;5112296;28;20039;-21
2023/07/07 04:02:03;;;;;;;24.05;15.60;;;11.10;99.90;;;;;;5096895;28;20138;-21
2023/07/07 04:04:29;;;;;;;24.92;16.23;;;11.10;99.90;;;;;;5113017;28;20044;-21
2023/07/07 04:06:58;;;;;;;28.95;16.80;;;11.20;99.90;;;;;;5122824;27;20050;-21
2023/07/07 04:09:25;;;;;;;21.27;15.73;;;11.20;99.90;;;;;;5134884;27;20437;-21
2023/07/07 04:11:51;;;;;;;28.10;16.40;;;11.20;99.90;;;;;;5135780;27;20108;-21
2023/07/07 04:14:18;;;;;;;24.98;17.23;;;11.30;99.90;;;;;;5135280;27;20047;-21
2023/07/07 04:16:44;;;;;;;27.38;17.45;;;11.40;99.90;;;;;;5135446;27;20046;-21
2023/07/07 04:19:10;;;;;;;25.27;16.33;;;11.40;99.90;;;;;;5135107;27;20392;-21
2023/07/07 04:21:35;;;;;;;26.20;17.77;;;11.50;99.90;;;;;;5133985;27;20061;-21
2023/07/07 04:24:03;;;;;;;27.23;17.05;;;11.60;99.90;;;;;;5135012;27;20388;-21
2023/07/07 04:26:30;;;;;;;23.35;16.85;;;11.70;99.90;;;;;;5135007;27;20047;-21
2023/07/07 04:28:59;;;;;;;23.20;15.70;;;11.80;99.90;;;;;;5134948;27;20078;-21
2023/07/07 04:31:27;;;;;;;27.65;17.08;;;11.80;99.90;;;;;;5133850;27;20051;-21
2023/07/07 04:33:54;;;;;;;25.02;17.38;;;11.90;99.90;;;;;;5134818;27;20047;-21
2023/07/07 04:36:20;;;;;;;24.80;18.08;;;12.00;99.90;;;;;;5134876;27;20061;-21
2023/07/07 04:38:47;;;;;;;25.90;17.42;;;12.10;99.90;;;;;;5135039;27;20123;-21
2023/07/07 04:41:16;;;;;;;24.13;17.58;;;12.20;99.90;;;;;;5133693;27;20072;-21
2023/07/07 04:44:03;;;;;;;22.33;16.85;;;12.20;99.90;;;;;;5134793;27;20054;-21
2023/07/07 04:46:35;;;;;;;22.83;17.58;;;12.30;99.90;;;;;;5116641;28;20130;-21
2023/07/07 04:49:08;;;;;;;22.25;16.58;;;12.40;99.90;;;;;;5135626;27;20434;-21
2023/07/07 04:51:38;;;;;;;;;;;12.50;99.90;;;;;;5134097;27;20039;-21
2023/07/07 04:54:05;;;;;;;24.10;16.60;;;12.60;99.90;;;;;;5134661;27;20380;-21
2023/07/07 04:56:33;;;;;;;23.17;17.02;;;12.70;99.90;;;;;;5134606;28;20490;-21
2023/07/07 04:58:59;;;;;;;23.33;16.25;;;12.80;99.90;;;;;;5116363;28;20091;-21
2023/07/07 05:01:27;;;;;;;24.67;17.00;;;12.90;99.90;;;;;;5135155;28;20066;-21
2023/07/07 05:03:56;;;;;;;25.80;17.88;;;13.00;99.90;;;;;;5114980;28;20075;-21
2023/07/07 05:06:24;;;;;;;25.73;17.02;;;13.20;99.90;;;;;;5134631;28;20120;-21
2023/07/07 05:08:50;;;;;;;24.95;17.88;;;13.20;99.90;;;;;;5134536;28;20505;-21
2023/07/07 05:11:19;;;;;;;24.52;16.48;;;13.40;99.90;;;;;;5100238;28;20051;-21
2023/07/07 05:13:49;;;;;;;21.13;16.45;;;13.60;99.90;;;;;;5115217;28;20085;-21
2023/07/07 05:16:22;;;;;;;20.60;17.27;;;13.80;99.90;;;;;;5135795;27;20047;-21
2023/07/07 05:18:48;;;;;;;24.70;16.13;;;14.00;99.90;;;;;;5121331;27;20051;-21
2023/07/07 05:21:16;;;;;;;26.52;17.52;;;14.20;99.90;;;;;;5138553;27;20124;-21
2023/07/07 05:23:42;;;;;;;21.08;15.30;;;14.60;99.90;;;;;;5137575;27;20042;-21
2023/07/07 05:26:08;;;;;;;22.08;15.60;;;15.00;99.90;;;;;;5136274;27;20051;-21
2023/07/07 05:28:34;;;;;;;18.92;15.73;;;15.60;99.90;;;;;;5137743;27;20114;-21
2023/07/07 05:30:59;;;;;;;21.00;15.52;;;16.30;99.90;;;;;;5138604;27;20481;-21
2023/07/07 05:33:28;;;;;;;21.65;14.57;;;16.50;99.90;;;;;;5138458;27;20039;-21
2023/07/07 05:35:56;;;;;;;19.58;13.60;;;16.50;99.90;;;;;;5137227;27;20044;-21
2023/07/07 05:38:24;;;;;;;19.73;13.80;;;16.60;99.90;;;;;;5138084;27;20454;-21
2023/07/07 05:40:51;;;;;;;17.75;12.82;;;17.50;99.90;;;;;;5120077;27;20046;-21
2023/07/07 05:43:18;;;;;;;15.77;12.80;;;18.50;1.00;;;;;;5138175;27;20046;-21
2023/07/07 05:45:44;;;;;;;17.05;12.07;;;19.30;92.50;;;;;;5137200;27;20166;-21
2023/07/07 05:48:11;;;;;;;17.45;11.27;;;19.70;1.00;;;;;;5119504;27;20494;-21
2023/07/07 05:50:40;;;;;;;12.25;10.68;;;20.50;99.90;;;;;;5138846;27;20070;-21
2023/07/07 05:53:05;;;;;;;19.05;11.45;;;20.80;1.00;;;;;;5119601;27;20058;-21
2023/07/07 05:55:34;;;;;;;16.70;11.20;;;21.20;99.90;;;;;;5118510;27;20043;-21
2023/07/07 05:58:01;;;;;;;16.00;11.40;;;21.40;1.00;;;;;;5137833;27;20445;-21
2023/07/07 06:00:28;;;;;;;15.50;11.13;;;21.40;99.90;;;;;;5119496;27;20043;-21
2023/07/07 06:02:55;;;;;;;17.40;10.73;;;21.30;89.90;;;;;;5103662;27;20054;-21
2023/07/07 06:05:20;;;;;;;13.80;9.85;;;21.20;99.90;;;;;;5136632;27;20122;-21
2023/07/07 06:07:47;;;;;;;16.38;10.65;;;20.90;92.30;;;;;;5115467;27;20544;-21
2023/07/07 06:10:13;;;;;;;13.05;10.60;;;20.90;26.50;;;;;;5136770;27;20039;-21
2023/07/07 06:12:39;;;;;;;17.90;10.77;;;20.60;1.00;;;;;;5137556;27;20039;-21
2023/07/07 06:15:06;;;;;;;12.88;9.80;;;20.90;1.00;;;;;;5119374;27;20050;-21
2023/07/07 06:17:31;;;;;;;13.10;9.68;;;20.90;1.00;;;;;;5136365;27;20386;-21
2023/07/07 06:19:57;;;;;;;16.77;9.48;;;20.90;1.00;;;;;;5137318;27;20050;-21
2023/07/07 06:22:23;;;;;;;14.57;9.68;;;21.00;99.90;;;;;;5120043;27;20364;-21
2023/07/07 06:24:50;;;;;;;16.90;8.98;;;21.10;99.90;;;;;;5118947;27;20047;-21
2023/07/07 06:27:16;;;;;;;16.02;9.52;;;21.50;99.90;;;;;;5118410;27;20051;-21
2023/07/07 06:29:41;;;;;;;13.02;8.70;;;21.50;99.90;;;;;;5136143;27;20047;-21
2023/07/07 06:32:08;;;;;;;12.48;8.77;;;21.70;46.80;;;;;;5118917;27;20043;-21
2023/07/07 06:34:34;;;;;;;10.73;9.15;;;21.70;1.00;;;;;;5137123;27;20086;-21
2023/07/07 06:36:59;;;;;;;19.65;9.20;;;22.00;1.00;;;;;;5137064;27;20046;-21
2023/07/07 06:39:29;;;;;;;14.25;9.57;;;22.30;1.00;;;;;;5116802;27;20046;-21
2023/07/07 06:41:56;;;;;;;13.75;8.75;;;22.20;1.00;;;;;;5119503;27;20139;-21
2023/07/07 06:44:22;;;;;;;9.55;7.32;;;22.40;1.00;;;;;;5118652;27;20055;-21
2023/07/07 06:46:48;;;;;;;10.13;7.50;;;22.40;99.90;;;;;;5135899;27;20047;-21
2023/07/07 06:49:13;;;;;;;13.32;7.30;;;22.60;99.90;;;;;;5136090;27;20042;-21
2023/07/07 06:51:39;;;;;;;12.70;7.95;;;22.90;99.90;;;;;;5102074;27;20043;-21
2023/07/07 06:54:05;;;;;;;10.02;7.20;;;22.90;99.90;;;;;;5136749;27;20054;-21
2023/07/07 06:56:31;;;;;;;13.48;6.93;;;23.10;99.90;;;;;;5118593;27;20079;-21
2023/07/07 06:58:56;;;;;;;9.93;6.57;;;23.00;5.80;;;;;;5117450;27;20050;-21
2023/07/07 07:01:22;;;;;;;11.13;7.60;;;23.10;1.00;;;;;;5118490;27;20039;-21
2023/07/07 07:03:48;;;;;;;8.18;5.90;;;23.10;1.00;;;;;;5118217;27;20042;-21
2023/07/07 07:06:15;;;;;;;12.68;7.40;;;23.20;1.00;;;;;;5119020;27;20051;-21
2023/07/07 07:08:40;;;;;;;8.95;6.15;;;23.50;1.00;;;;;;5134280;27;20070;-21
2023/07/07 07:11:07;;;;;;;13.57;5.68;;;23.70;1.00;;;;;;5137289;27;20039;-21
2023/07/07 07:13:33;;;;;;;8.75;5.47;;;23.60;99.90;;;;;;5136408;27;20130;-21
2023/07/07 07:15:59;;;;;;;8.93;5.70;;;24.00;99.90;;;;;;5136865;27;20058;-22
2023/07/07 07:18:25;;;;;;;10.43;5.72;;;24.30;99.90;;;;;;5136185;27;20039;-22
2023/07/07 07:20:54;;;;;;;6.82;5.13;;;24.70;99.90;;;;;;5117031;27;20054;-21
2023/07/07 07:23:20;;;;;;;10.77;5.13;;;24.80;99.90;;;;;;5136192;27;20489;-22
2023/07/07 07:25:46;;;;;;;8.85;5.20;;;24.60;99.90;;;;;;5136956;27;20047;-22
2023/07/07 07:28:13;;;;;;;8.07;4.13;;;24.70;99.90;;;;;;5117490;27;20381;-22
2023/07/07 07:30:39;;;;;;;8.60;4.38;;;24.60;99.90;;;;;;5135260;27;20104;-22
2023/07/07 07:33:11;;;;;;;9.65;5.40;;;24.60;99.90;;;;;;5136219;27;20047;-22
2023/07/07 07:35:37;;;;;;;10.02;4.95;;;24.50;88.00;;;;;;5117242;27;21789;-22
2023/07/07 07:38:03;;;;;;;7.55;4.80;;;24.90;99.90;;;;;;5130156;27;20035;-22
2023/07/07 07:40:29;;;;;;;7.70;4.45;;;25.00;88.40;;;;;;5134327;27;20046;-22
2023/07/07 07:42:55;;;;;;;8.25;4.40;;;25.40;64.60;;;;;;5116090;27;20043;-22
2023/07/07 07:45:24;;;;;;;6.90;3.42;;;25.50;56.00;;;;;;5135007;27;20043;-22
2023/07/07 07:47:51;;;;;;;10.15;4.10;;;25.70;1.00;;;;;;5135184;27;20477;-22
2023/07/07 07:50:18;;;;;;;7.80;3.58;;;25.90;1.00;;;;;;5135398;27;20527;-22
2023/07/07 07:52:45;;;;;;;5.75;3.35;;;25.90;1.00;;;;;;5134881;27;20047;-22
2023/07/07 07:55:11;;;;;;;7.75;3.40;;;25.70;1.00;;;;;;5117128;27;20077;-22
2023/07/07 07:57:37;;;;;;;5.75;3.50;;;25.30;1.00;;;;;;5135510;27;20492;-22
2023/07/07 08:00:04;;;;;;;6.35;3.47;;;25.40;1.00;;;;;;5117766;27;20081;-22
2023/07/07 08:02:30;;;;;;;7.05;3.03;;;25.40;1.00;;;;;;5136043;27;20040;-22
2023/07/07 08:04:56;;;;;;;10.80;3.67;;;25.60;1.00;;;;;;5135424;27;20055;-22
2023/07/07 08:07:22;;;;;;;7.90;3.13;;;26.10;1.00;;;;;;5134959;27;20063;-22
2023/07/07 08:09:48;;;;;;;6.57;3.17;;;26.50;1.00;;;;;;5116264;27;20051;-22
2023/07/07 08:12:14;;;;;;;7.82;3.50;;;26.20;1.00;;;;;;5133854;27;20043;-22
2023/07/07 08:14:40;;;;;;;6.30;3.00;;;26.50;1.00;;;;;;5117151;27;20108;-22
2023/07/07 08:17:08;;;;;;;6.03;2.95;;;26.70;1.00;;;;;;5135241;27;20082;-22
2023/07/07 08:19:36;;;;;;;9.35;3.10;;;27.40;1.00;;;;;;5134273;27;20050;-22
2023/07/07 08:22:19;;;;;;;5.65;2.63;;;27.30;1.00;;;;;;5135090;27;20047;-22
2023/07/07 08:24:47;;;;;;;5.93;3.15;;;27.20;1.00;;;;;;5135705;27;20050;-22
2023/07/07 08:27:13;;;;;;;7.75;2.97;;;27.10;1.00;;;;;;5135032;27;20050;-22
2023/07/07 08:29:41;;;;;;;6.47;3.47;;;26.70;99.90;;;;;;5114479;27;20050;-22
2023/07/07 08:32:08;;;;;;;6.78;3.05;;;26.60;99.90;;;;;;5134763;27;20070;-22
2023/07/07 08:34:34;;;;;;;5.45;2.72;;;26.70;99.90;;;;;;5116520;27;20039;-22
2023/07/07 08:37:00;;;;;;;3.55;2.08;;;26.80;99.90;;;;;;5135038;27;20066;-22
2023/07/07 08:39:28;;;;;;;6.60;2.60;;;26.60;99.90;;;;;;5099476;27;20076;-22
2023/07/07 08:41:59;;;;;;;7.20;2.72;;;26.60;99.90;;;;;;5133980;27;20054;-22
2023/07/07 08:44:27;;;;;;;3.88;2.60;;;26.80;99.90;;;;;;5135319;27;20047;-22
2023/07/07 08:46:58;;;;;;;3.80;1.58;;;26.80;99.90;;;;;;5135246;27;20047;-22
2023/07/07 08:49:45;;;;;;;7.43;2.53;;;27.10;99.90;;;;;;5135448;27;20061;-22
2023/07/07 08:52:29;;;;;;;7.70;2.83;;;26.90;99.90;;;;;;5098324;27;20050;-22
2023/07/07 08:55:10;;;;;;;6.43;2.50;;;27.10;99.90;;;;;;5116607;28;20050;-22
2023/07/07 08:57:47;;;;;;;6.07;2.08;;;27.70;99.90;;;;;;5130747;28;20114;-22
2023/07/07 09:00:50;;;;;;;4.75;1.90;;;27.80;99.90;;;;;;5112494;28;20134;-22
2023/07/07 09:03:15;;;;;;;2.83;1.88;;;27.90;99.90;;;;;;5110338;28;20226;-22
2023/07/07 09:05:56;;;;;;;6.60;1.80;;;27.70;99.90;;;;;;5134855;28;20156;-22
2023/07/07 09:08:44;;;;;;;5.88;2.38;;;27.40;99.90;;;;;;5092444;28;20047;-22
2023/07/07 09:11:24;;;;;;;9.23;2.92;;;27.70;99.90;;;;;;5093502;28;20052;-23
2023/07/07 09:13:54;;;;;;;3.95;2.10;;;28.20;99.90;;;;;;5076748;28;20524;-23
2023/07/07 09:16:34;;;;;;;4.72;2.30;;;29.10;99.90;;;;;;5072216;28;20044;-23
2023/07/07 09:19:17;;;;;;;5.43;2.13;;;29.30;99.90;;;;;;5055598;28;20048;-23
2023/07/07 09:21:45;;;;;;;;;;;28.50;99.90;;;;;;5072819;28;20486;-23
2023/07/07 09:24:21;;;;;;;6.50;2.40;;;28.30;99.90;;;;;;5085555;28;19942;-23
2023/07/07 09:26:50;;;;;;;3.63;2.58;;;28.50;99.90;;;;;;5094082;28;20051;-23
2023/07/07 09:29:25;;;;;;;3.63;1.95;;;29.00;99.90;;;;;;5093855;28;20048;-23
2023/07/07 09:31:51;;;;;;;3.95;2.00;;;29.40;99.90;;;;;;5091178;28;20044;-23
2023/07/07 09:34:17;;;;;;;4.75;2.28;;;29.80;99.90;;;;;;5091795;28;20051;-23
2023/07/07 09:37:13;;;;;;;4.68;2.58;;;29.90;99.90;;;;;;5093333;28;20101;-23
2023/07/07 09:40:07;;;;;;;4.38;1.98;;;30.20;99.90;;;;;;5085214;28;20098;-23
2023/07/07 09:43:02;;;;;;;4.13;1.58;;;29.70;99.90;;;;;;5073996;28;20351;-23
2023/07/07 09:45:28;;;;;;;3.45;1.80;;;29.50;99.90;;;;;;5047136;28;20140;-23
2023/07/07 09:48:01;;;;;;;6.68;2.10;;;29.90;99.90;;;;;;5072996;28;20053;-24
2023/07/07 09:50:31;;;;;;;4.10;1.80;;;29.60;99.90;;;;;;5073617;28;20049;-24
2023/07/07 09:53:07;;;;;;;6.70;2.17;;;29.60;99.90;;;;;;5071828;28;20048;-23
2023/07/07 09:55:36;;;;;;;3.03;1.50;;;29.80;99.90;;;;;;5079025;28;20166;-23
2023/07/07 09:58:19;;;;;;;4.25;2.05;;;29.80;99.90;;;;;;5090872;28;20043;-24
2023/07/07 10:00:49;;;;;;;3.65;1.92;;;29.70;99.90;;;;;;5093442;28;20044;-24
2023/07/07 10:03:28;;;;;;;4.88;1.95;;;29.50;99.90;;;;;;5093896;28;20047;-24
2023/07/07 10:05:57;;;;;;;3.55;1.83;;;29.50;99.90;;;;;;5096302;28;20048;-23
2023/07/07 10:08:23;;;;;;;3.50;1.80;;;29.50;99.90;;;;;;5117347;28;20044;-24
2023/07/07 10:11:11;;;;;;;7.22;1.85;;;29.80;99.90;;;;;;5117003;28;20401;-24
2023/07/07 10:13:36;;;;;;;4.05;1.95;;;29.60;99.90;;;;;;5117651;27;20043;-24
2023/07/07 10:16:07;;;;;;;4.32;2.08;;;29.30;99.90;;;;;;5115097;28;20050;-23
2023/07/07 10:18:33;;;;;;;5.50;2.45;;;29.10;99.90;;;;;;5114804;28;20055;-23
2023/07/07 10:21:03;;;;;;;5.13;2.53;;;29.70;99.90;;;;;;5115798;28;20039;-24
2023/07/07 10:23:29;;;;;;;6.10;2.28;;;30.30;99.90;;;;;;5116453;28;20417;-24
2023/07/07 10:25:55;;;;;;;4.97;1.88;;;30.30;99.90;;;;;;5116805;28;20047;-24
2023/07/07 10:28:22;;;;;;;8.65;2.10;;;30.80;99.90;;;;;;5115426;28;20043;-24
2023/07/07 10:30:48;;;;;;;6.25;1.83;;;31.30;99.90;;;;;;5114697;28;20489;-24
2023/07/07 10:33:17;;;;;;;2.65;1.80;;;31.20;99.90;;;;;;5116509;28;20130;-24
2023/07/07 10:35:43;;;;;;;3.83;2.00;;;31.60;99.90;;;;;;5115334;28;20039;-24
2023/07/07 10:38:11;;;;;;;5.35;2.58;;;31.50;99.90;;;;;;5115513;28;20055;-24
2023/07/07 10:40:37;;;;;;;3.05;1.90;;;31.90;99.90;;;;;;5115115;27;20549;-23
2023/07/07 10:43:05;;;;;;;3.60;1.90;;;31.80;99.90;;;;;;5116437;28;20090;-22
2023/07/07 10:45:31;;;;;;;3.17;1.90;;;31.90;99.90;;;;;;5115215;28;20577;-22
2023/07/07 10:47:57;;;;;;;4.40;2.25;;;32.10;99.90;;;;;;5115130;28;20126;-22
2023/07/07 10:50:27;;;;;;;5.13;2.17;;;32.60;99.90;;;;;;5115364;28;20051;-22
2023/07/07 10:53:08;;;;;;;3.97;1.63;;;32.60;99.90;;;;;;5113842;28;20491;-22
2023/07/07 10:56:03;;;;;;;4.72;2.13;;;32.50;99.90;;;;;;5116892;28;20097;-22
2023/07/07 10:58:49;;;;;;;5.20;1.90;;;32.90;99.90;;;;;;5110107;28;20435;-22
2023/07/07 11:01:42;;;;;;;3.28;1.85;;;33.20;99.90;;;;;;5114654;28;20040;-22
2023/07/07 11:04:14;;;;;;;3.85;2.20;;;32.80;99.90;;;;;;5116089;28;20501;-23
2023/07/07 11:06:52;;;;;;;3.60;2.22;;;32.60;99.90;;;;;;5114982;28;20048;-22
2023/07/07 11:09:34;;;;;;;3.13;1.80;;;33.10;99.90;;;;;;5114651;28;20043;-23
2023/07/07 11:12:14;;;;;;;4.57;1.90;;;33.30;99.90;;;;;;5116369;28;20056;-23
2023/07/07 11:14:52;;;;;;;6.28;2.38;;;33.10;99.90;;;;;;5115350;28;20047;-23
2023/07/07 11:17:43;;;;;;;5.45;1.90;;;33.20;99.90;;;;;;5113396;28;20051;-23
2023/07/07 11:20:30;;;;;;;2.63;2.22;;;33.30;99.90;;;;;;5115606;28;20473;-23
2023/07/07 11:22:55;;;;;;;8.20;2.38;;;33.10;99.90;;;;;;5115988;28;20134;-23
2023/07/07 11:25:56;;;;;;;5.32;2.25;;;32.80;99.90;;;;;;5114429;28;20169;-23
2023/07/07 11:28:40;;;;;;;5.43;2.45;;;32.80;99.90;;;;;;5033155;28;20506;-23
2023/07/07 11:31:32;;;;;;;4.47;2.00;;;31.90;99.90;;;;;;5108613;28;20051;-23
2023/07/07 11:34:16;;;;;;;3.85;1.75;;;32.00;99.90;;;;;;5111150;28;20163;-23
2023/07/07 11:36:52;;;;;;;3.78;2.58;;;31.20;99.90;;;;;;5115887;28;20439;-23
2023/07/07 11:39:48;;;;;;;5.72;2.08;;;31.50;99.90;;;;;;5113608;28;20045;-23
2023/07/07 11:42:22;;;;;;;6.03;2.03;;;31.70;99.90;;;;;;5112513;28;20047;-23
2023/07/07 11:45:40;;;;;;;4.20;1.85;;;32.00;99.90;;;;;;5115736;28;20070;-23
2023/07/07 11:48:38;;;;;;;10.55;2.05;;;32.60;99.90;;;;;;5073068;28;20048;-23
2023/07/07 11:52:02;;;;;;;4.95;2.00;;;33.00;99.90;;;;;;5113852;28;20622;-23
2023/07/07 11:55:14;;;;;;;8.10;2.40;;;33.40;99.90;;;;;;5032237;28;20432;-23
2023/07/07 11:58:00;;;;;;;3.90;1.85;;;33.40;99.90;;;;;;5031982;28;20099;-23
2023/07/07 12:00:42;;;;;;;4.43;2.00;;;33.40;99.90;;;;;;5104160;28;20060;-24
2023/07/07 12:03:20;;;;;;;3.60;2.58;;;33.10;99.90;;;;;;5094918;28;20044;-23
2023/07/07 12:05:47;;;;;;;3.05;1.88;;;33.20;99.90;;;;;;5093859;28;20071;-23
2023/07/07 12:08:21;;;;;;;3.15;2.17;;;33.30;99.90;;;;;;5127834;27;20063;-23
2023/07/07 12:10:51;;;;;;;3.67;2.17;;;33.70;99.90;;;;;;5136113;27;20376;-23
2023/07/07 12:13:32;;;;;;;5.50;2.10;;;33.50;99.90;;;;;;5135176;27;20465;-23
2023/07/07 12:16:10;;;;;;;3.33;2.03;;;33.80;99.90;;;;;;5116803;27;20051;-23
2023/07/07 12:18:39;;;;;;;5.03;2.00;;;33.60;99.90;;;;;;5117230;27;20126;-23
2023/07/07 12:21:14;;;;;;;6.15;1.85;;;33.70;99.90;;;;;;5117772;27;20046;-23
2023/07/07 12:23:48;;;;;;;4.38;2.05;;;34.10;99.90;;;;;;5115722;27;20050;-23
2023/07/07 12:26:26;;;;;;;5.00;2.30;;;34.40;99.90;;;;;;5133462;27;20047;-24
2023/07/07 12:29:02;;;;;;;3.05;1.83;;;34.40;99.90;;;;;;5117199;27;20480;-24
2023/07/07 12:31:28;;;;;;;2.50;1.98;;;34.40;99.90;;;;;;5135612;27;20057;-24
2023/07/07 12:33:55;;;;;;;4.95;2.00;;;34.20;99.90;;;;;;5133827;27;20054;-23
2023/07/07 12:36:28;;;;;;;3.85;2.20;;;34.30;99.90;;;;;;5116601;27;20051;-24
2023/07/07 12:38:59;;;;;;;4.00;1.90;;;34.10;99.90;;;;;;5116583;27;20046;-24
2023/07/07 12:41:28;;;;;;;4.03;1.90;;;34.10;99.90;;;;;;5134900;27;20039;-24
2023/07/07 12:43:59;;;;;;;3.30;2.00;;;34.30;99.90;;;;;;5099709;28;20078;-24
2023/07/07 12:46:30;;;;;;;3.33;2.33;;;34.20;99.90;;;;;;5133713;27;20050;-24
2023/07/07 12:48:58;;;;;;;3.15;1.98;;;33.80;99.90;;;;;;5135327;27;20039;-24
2023/07/07 12:51:28;;;;;;;8.48;2.15;;;33.70;99.90;;;;;;5099543;28;20051;-23
2023/07/07 12:53:54;;;;;;;5.45;2.22;;;33.80;99.90;;;;;;5116330;27;20135;-24
2023/07/07 12:56:24;;;;;;;3.38;1.73;;;33.80;99.90;;;;;;5132968;27;20054;-24
2023/07/07 12:58:57;;;;;;;3.90;2.38;;;33.30;99.90;;;;;;5116233;28;20094;-24